createdAt,value
2018-11-07T00:01:49.724Z,27.97
2018-11-07T00:04:18.204Z,25.50
2018-11-07T00:06:46.639Z,27.00
2018-11-07T00:09:15.077Z,22.67
2018-11-07T00:11:43.416Z,22.40
2018-11-07T00:14:12.008Z,22.20
2018-11-07T00:16:40.359Z,20.47
2018-11-07T00:19:08.757Z,22.77
2018-11-07T00:21:37.174Z,20.07
2018-11-07T00:24:05.566Z,19.47
2018-11-07T00:26:33.980Z,18.83
2018-11-07T00:29:02.359Z,19.87
2018-11-07T00:31:30.776Z,20.37
2018-11-07T00:33:59.709Z,19.30
2018-11-07T00:36:28.067Z,19.47
2018-11-07T00:38:56.493Z,20.93
2018-11-07T00:41:24.944Z,21.33
2018-11-07T00:43:53.396Z,20.30
2018-11-07T00:46:21.816Z,20.47
2018-11-07T00:48:50.262Z,22.00
2018-11-07T00:51:18.725Z,19.53
2018-11-07T00:53:47.205Z,20.20
2018-11-07T00:56:15.684Z,19.73
2018-11-07T00:58:44.180Z,23.00
2018-11-07T01:01:13.209Z,19.50
2018-11-07T01:03:41.594Z,18.73
2018-11-07T01:06:09.991Z,19.87
2018-11-07T01:08:39.005Z,20.90
2018-11-07T01:11:07.566Z,23.07
2018-11-07T01:13:36.265Z,23.00
2018-11-07T01:16:04.677Z,19.80
2018-11-07T01:18:33.047Z,18.90
2018-11-07T01:21:01.424Z,19.47
2018-11-07T01:23:29.827Z,19.53
2018-11-07T01:25:58.187Z,21.53
2018-11-07T01:28:26.638Z,21.83
2018-11-07T01:30:55.124Z,22.73
2018-11-07T01:33:23.504Z,19.93
2018-11-07T01:35:51.915Z,21.17
2018-11-07T01:38:20.261Z,23.80
2018-11-07T01:40:48.584Z,19.87
2018-11-07T01:43:17.007Z,21.87
2018-11-07T01:45:45.386Z,22.83
2018-11-07T01:48:13.891Z,21.80
2018-11-07T01:50:42.336Z,19.87
2018-11-07T01:53:10.775Z,20.33
2018-11-07T01:55:39.108Z,18.47
2018-11-07T01:58:07.655Z,19.67
2018-11-07T02:00:36.109Z,19.43
2018-11-07T02:03:04.647Z,20.37
2018-11-07T02:05:33.115Z,19.70
2018-11-07T02:08:01.487Z,20.17
2018-11-07T02:10:29.932Z,20.87
2018-11-07T02:12:58.374Z,21.07
2018-11-07T02:15:26.840Z,21.97
2018-11-07T02:17:55.244Z,20.47
2018-11-07T02:20:23.649Z,21.47
2018-11-07T02:22:52.022Z,21.80
2018-11-07T02:25:21.357Z,24.67
2018-11-07T02:27:49.781Z,22.33
2018-11-07T02:30:18.344Z,23.43
2018-11-07T02:32:46.782Z,25.27
2018-11-07T02:35:15.295Z,21.97
2018-11-07T02:37:43.729Z,22.20
2018-11-07T02:40:12.176Z,23.10
2018-11-07T02:42:40.548Z,24.73
2018-11-07T02:45:09.588Z,24.07
2018-11-07T02:47:38.212Z,23.83
2018-11-07T02:50:07.693Z,22.17
2018-11-07T02:52:36.176Z,21.73
2018-11-07T02:55:04.830Z,20.60
2018-11-07T02:57:33.248Z,19.60
2018-11-07T03:00:01.678Z,20.43
2018-11-07T03:02:30.128Z,19.90
2018-11-07T03:04:58.453Z,20.87
2018-11-07T03:07:26.824Z,19.30
2018-11-07T03:09:56.075Z,19.43
2018-11-07T03:12:24.517Z,19.37
2018-11-07T03:14:52.950Z,17.93
2018-11-07T03:17:21.828Z,18.63
2018-11-07T03:19:50.392Z,17.80
2018-11-07T03:22:18.743Z,18.70
2018-11-07T03:24:47.168Z,18.13
2018-11-07T03:27:15.657Z,18.73
2018-11-07T03:29:44.137Z,18.13
2018-11-07T03:32:12.583Z,18.23
2018-11-07T03:34:41.035Z,20.20
2018-11-07T03:37:09.520Z,20.30
2018-11-07T03:39:37.919Z,17.73
2018-11-07T03:42:06.372Z,18.07
2018-11-07T03:44:34.805Z,17.37
2018-11-07T03:47:03.814Z,19.17
2018-11-07T03:49:32.204Z,19.43
2018-11-07T03:52:00.615Z,19.17
2018-11-07T03:54:29.072Z,21.33
2018-11-07T03:56:57.468Z,21.87
2018-11-07T03:59:25.869Z,20.87
2018-11-07T04:01:54.729Z,21.07
2018-11-07T04:04:23.180Z,22.90
2018-11-07T04:06:51.513Z,19.90
2018-11-07T04:09:19.872Z,19.60
2018-11-07T04:11:48.468Z,19.23
2018-11-07T04:14:16.831Z,18.10
2018-11-07T04:16:45.327Z,20.57
2018-11-07T04:19:13.792Z,19.97
2018-11-07T04:21:42.261Z,19.37
2018-11-07T04:24:10.789Z,20.10
2018-11-07T04:26:39.582Z,19.70
2018-11-07T04:29:08.200Z,20.20
2018-11-07T04:31:36.620Z,21.87
2018-11-07T04:34:05.093Z,21.53
2018-11-07T04:36:33.490Z,21.70
2018-11-07T04:39:02.029Z,21.40
2018-11-07T04:41:30.457Z,20.40
2018-11-07T04:43:58.880Z,20.27
2018-11-07T04:46:27.348Z,23.17
2018-11-07T04:48:55.793Z,22.10
2018-11-07T04:51:24.248Z,23.60
2018-11-07T04:53:52.684Z,26.43
2018-11-07T04:56:21.308Z,23.30
2018-11-07T04:58:49.748Z,23.73
2018-11-07T05:01:18.116Z,24.43
2018-11-07T05:03:46.489Z,22.63
2018-11-07T05:06:15.000Z,20.87
2018-11-07T05:08:43.582Z,23.23
2018-11-07T05:11:11.920Z,23.23
2018-11-07T05:13:40.388Z,24.20
2018-11-07T05:16:10.908Z,24.07
2018-11-07T05:18:39.971Z,23.83
2018-11-07T05:21:08.388Z,22.70
2018-11-07T05:23:36.841Z,26.07
2018-11-07T05:26:05.472Z,23.80
2018-11-07T05:28:33.827Z,23.93
2018-11-07T05:31:02.212Z,24.50
2018-11-07T05:33:30.664Z,26.23
2018-11-07T05:35:59.092Z,25.70
2018-11-07T05:38:27.476Z,25.23
2018-11-07T05:40:55.898Z,24.83
2018-11-07T05:43:24.283Z,26.77
2018-11-07T05:45:52.972Z,25.77
2018-11-07T05:48:21.397Z,25.23
2018-11-07T05:50:49.837Z,27.30
2018-11-07T05:53:19.048Z,25.40
2018-11-07T05:55:47.472Z,24.87
2018-11-07T05:58:15.960Z,23.07
2018-11-07T06:00:44.492Z,24.07
2018-11-07T06:03:13.050Z,22.03
2018-11-07T06:05:41.493Z,24.63
2018-11-07T06:08:09.912Z,23.17
2018-11-07T06:10:38.403Z,20.93
2018-11-07T06:13:07.166Z,22.13
2018-11-07T06:15:35.569Z,23.13
2018-11-07T06:18:04.021Z,24.03
2018-11-07T06:20:32.358Z,22.67
2018-11-07T06:23:00.828Z,23.70
2018-11-07T06:25:29.269Z,24.37
2018-11-07T06:27:57.658Z,22.23
2018-11-07T06:30:26.049Z,22.63
2018-11-07T06:32:54.455Z,23.17
2018-11-07T06:35:22.833Z,24.30
2018-11-07T06:37:51.292Z,22.67
2018-11-07T06:40:19.796Z,22.97
2018-11-07T06:42:48.170Z,24.77
2018-11-07T06:45:17.161Z,26.13
2018-11-07T06:47:45.588Z,25.27
2018-11-07T06:50:15.099Z,24.83
2018-11-07T06:52:43.981Z,22.70
2018-11-07T06:55:12.995Z,22.47
2018-11-07T06:57:41.400Z,23.73
2018-11-07T07:00:13.196Z,20.40
2018-11-07T07:02:41.988Z,21.93
2018-11-07T07:05:10.409Z,22.47
2018-11-07T07:07:39.053Z,23.63
2018-11-07T07:10:12.245Z,21.60
2018-11-07T07:12:40.951Z,20.13
2018-11-07T07:15:11.552Z,23.13
2018-11-07T07:17:40.153Z,20.70
2018-11-07T07:20:10.884Z,20.77
2018-11-07T07:22:39.752Z,19.67
2018-11-07T07:25:09.030Z,20.40
2018-11-07T07:27:37.440Z,20.30
2018-11-07T07:30:08.498Z,20.33
2018-11-07T07:32:36.877Z,20.10
2018-11-07T07:35:05.585Z,21.77
2018-11-07T07:37:34.680Z,20.77
2018-11-07T07:40:03.724Z,21.53
2018-11-07T07:42:32.271Z,22.00
2018-11-07T07:45:00.681Z,20.43
2018-11-07T07:47:29.367Z,20.63
2018-11-07T07:49:58.434Z,21.60
2018-11-07T07:52:26.885Z,21.23
2018-11-07T07:54:55.252Z,21.00
2018-11-07T07:57:23.644Z,19.07
2018-11-07T07:59:52.121Z,17.57
2018-11-07T08:02:20.547Z,21.27
2018-11-07T08:04:48.948Z,21.77
2018-11-07T08:07:17.396Z,21.37
2018-11-07T08:09:45.841Z,19.77
2018-11-07T08:12:14.324Z,19.90
2018-11-07T08:14:42.697Z,18.30
2018-11-07T08:17:11.140Z,21.23
2018-11-07T08:19:39.474Z,22.23
2018-11-07T08:22:07.890Z,18.83
2018-11-07T08:24:36.312Z,20.00
2018-11-07T08:27:04.960Z,17.67
2018-11-07T08:29:33.371Z,19.27
2018-11-07T08:32:01.813Z,18.57
2018-11-07T08:34:30.188Z,18.47
2018-11-07T08:36:59.317Z,20.13
2018-11-07T08:39:27.700Z,22.37
2018-11-07T08:41:56.138Z,21.23
2018-11-07T08:44:24.548Z,23.30
2018-11-07T08:46:53.268Z,20.87
2018-11-07T08:49:21.673Z,21.30
2018-11-07T08:51:50.109Z,18.93
2018-11-07T08:54:18.509Z,20.70
2018-11-07T08:56:46.900Z,20.67
2018-11-07T08:59:15.326Z,18.23
2018-11-07T09:01:43.765Z,20.53
2018-11-07T09:11:09.231Z,20.70
2018-11-07T09:13:37.391Z,20.23
2018-11-07T09:16:05.547Z,20.63
2018-11-07T09:18:33.734Z,20.60
2018-11-07T09:21:01.904Z,20.70
2018-11-07T09:23:30.067Z,22.77
2018-11-07T09:25:58.260Z,19.50
2018-11-07T09:28:26.438Z,20.90
2018-11-07T09:30:54.620Z,20.20
2018-11-07T09:33:22.827Z,19.10
2018-11-07T09:35:50.986Z,18.27
2018-11-07T09:38:19.151Z,18.20
2018-11-07T09:40:47.318Z,19.67
2018-11-07T09:43:15.503Z,18.20
2018-11-07T09:45:43.678Z,19.40
2018-11-07T09:48:12.247Z,16.83
2018-11-07T09:50:40.405Z,16.13
2018-11-07T09:53:08.583Z,18.53
2018-11-07T09:55:36.747Z,18.10
2018-11-07T09:58:05.994Z,17.93
2018-11-07T10:00:34.470Z,19.67
2018-11-07T10:03:02.686Z,19.93
2018-11-07T10:05:30.899Z,19.03
2018-11-07T10:07:59.026Z,21.03
2018-11-07T10:10:27.219Z,20.30
2018-11-07T10:12:55.394Z,21.30
2018-11-07T10:15:23.567Z,21.00
2018-11-07T10:17:51.746Z,21.60
2018-11-07T10:20:22.310Z,20.40
2018-11-07T10:22:50.655Z,21.73
2018-11-07T10:25:19.062Z,21.37
2018-11-07T10:27:47.531Z,20.90
2018-11-07T10:30:17.769Z,21.37
2018-11-07T10:32:46.904Z,20.60
2018-11-07T10:35:15.342Z,21.37
2018-11-07T10:37:43.704Z,19.60
2018-11-07T10:40:16.395Z,22.03
2018-11-07T10:42:45.274Z,20.83
2018-11-07T10:45:13.963Z,22.10
2018-11-07T10:47:42.857Z,21.63
2018-11-07T10:50:12.653Z,22.27
2018-11-07T10:52:41.898Z,21.17
2018-11-07T10:55:10.806Z,19.47
2018-11-07T10:57:38.970Z,22.00
2018-11-07T11:00:15.310Z,21.43
2018-11-07T11:03:47.627Z,21.90
2018-11-07T11:06:15.798Z,22.43
2018-11-07T11:08:43.995Z,23.43
2018-11-07T11:11:12.213Z,22.67
2018-11-07T11:13:40.578Z,24.13
2018-11-07T11:16:08.750Z,22.33
2018-11-07T11:18:36.943Z,23.20
2018-11-07T11:21:05.285Z,22.67
2018-11-07T11:23:33.478Z,21.87
2018-11-07T11:26:01.663Z,22.60
2018-11-07T11:28:29.852Z,22.40
2018-11-07T11:30:58.035Z,23.77
2018-11-07T11:33:26.214Z,22.70
2018-11-07T11:35:54.379Z,23.20
2018-11-07T11:38:22.564Z,22.67
2018-11-07T11:40:50.751Z,22.13
2018-11-07T11:43:18.894Z,23.93
2018-11-07T11:45:47.554Z,23.80
2018-11-07T11:48:17.591Z,22.10
2018-11-07T11:50:45.742Z,22.70
2018-11-07T11:53:13.926Z,23.53
2018-11-07T11:55:42.087Z,22.90
2018-11-07T11:58:10.283Z,21.57
2018-11-07T12:00:38.454Z,22.00
2018-11-07T12:03:06.639Z,21.07
2018-11-07T12:05:35.019Z,23.47
2018-11-07T12:08:03.171Z,21.90
2018-11-07T12:10:31.373Z,21.20
2018-11-07T12:12:59.539Z,20.77
2018-11-07T12:15:28.331Z,21.43
2018-11-07T12:17:56.879Z,21.00
2018-11-07T12:20:25.056Z,19.63
2018-11-07T12:22:53.221Z,17.97
2018-11-07T12:25:22.064Z,16.50
2018-11-07T12:27:50.316Z,18.73
2018-11-07T12:30:20.072Z,19.27
2018-11-07T12:32:49.273Z,18.53
2018-11-07T12:35:18.147Z,17.63
2018-11-07T12:37:46.447Z,18.43
2018-11-07T12:40:15.515Z,19.47
2018-11-07T12:42:43.750Z,19.30
2018-11-07T12:45:13.067Z,18.80
2018-11-07T12:47:41.523Z,17.03
2018-11-07T12:50:12.706Z,19.20
2018-11-07T12:52:40.695Z,19.30
2018-11-07T12:55:10.212Z,18.53
2018-11-07T12:57:38.724Z,19.40
2018-11-07T13:00:10.359Z,20.20
2018-11-07T13:02:38.714Z,17.77
2018-11-07T13:05:07.742Z,19.87
2018-11-07T13:07:35.944Z,19.27
2018-11-07T13:10:04.516Z,18.37
2018-11-07T13:12:32.668Z,18.63
2018-11-07T13:15:00.847Z,19.60
2018-11-07T13:17:29.030Z,24.07
2018-11-07T13:19:57.558Z,26.90
2018-11-07T13:22:25.771Z,41.13
2018-11-07T13:24:53.915Z,21.57
2018-11-07T13:27:22.079Z,19.33
2018-11-07T13:29:50.255Z,19.23
2018-11-07T13:32:18.408Z,20.73
2018-11-07T13:34:46.628Z,25.83
2018-11-07T13:37:15.042Z,20.43
2018-11-07T13:39:43.349Z,20.30
2018-11-07T13:42:11.539Z,19.63
2018-11-07T13:44:40.370Z,19.10
2018-11-07T13:47:08.524Z,18.80
2018-11-07T13:49:36.671Z,20.83
2018-11-07T13:52:05.487Z,20.37
2018-11-07T13:54:33.667Z,19.57
2018-11-07T13:57:01.874Z,20.83
2018-11-07T13:59:30.067Z,20.07
2018-11-07T14:01:58.263Z,20.00
2018-11-07T14:04:26.491Z,58.53
2018-11-07T14:06:54.656Z,21.73
2018-11-07T14:09:22.850Z,18.77
2018-11-07T14:11:51.035Z,20.00
2018-11-07T14:14:19.215Z,19.63
2018-11-07T14:16:47.449Z,20.07
2018-11-07T14:19:15.779Z,18.07
2018-11-07T14:21:44.015Z,27.17
2018-11-07T14:24:12.211Z,23.50
2018-11-07T14:26:40.362Z,19.20
2018-11-07T14:29:08.614Z,19.47
2018-11-07T14:31:36.822Z,19.90
2018-11-07T14:34:06.003Z,19.73
2018-11-07T14:36:34.359Z,21.27
2018-11-07T14:39:02.571Z,20.10
2018-11-07T14:41:30.718Z,19.47
2018-11-07T14:43:58.933Z,19.50
2018-11-07T14:46:27.108Z,17.70
2018-11-07T14:48:55.275Z,17.73
2018-11-07T14:51:23.434Z,17.57
2018-11-07T14:53:51.610Z,18.90
2018-11-07T14:56:19.795Z,20.40
2018-11-07T14:58:48.160Z,19.73
2018-11-07T15:01:16.671Z,22.40
2018-11-07T15:03:44.931Z,31.90
2018-11-07T15:06:13.233Z,26.10
2018-11-07T15:08:41.346Z,27.73
2018-11-07T15:11:09.557Z,33.07
2018-11-07T15:13:37.682Z,33.93
2018-11-07T15:16:05.953Z,29.53
2018-11-07T15:18:34.223Z,22.80
2018-11-07T15:21:02.392Z,18.60
2018-11-07T15:23:30.646Z,21.40
2018-11-07T15:25:58.865Z,17.33
2018-11-07T15:28:27.048Z,17.83
2018-11-07T15:30:55.275Z,17.90
2018-11-07T15:33:23.633Z,16.60
2018-11-07T15:35:52.233Z,18.00
2018-11-07T15:38:20.393Z,18.10
2018-11-07T15:40:48.671Z,21.03
2018-11-07T15:43:17.419Z,20.20
2018-11-07T15:45:45.606Z,18.23
2018-11-07T15:48:13.784Z,17.30
2018-11-07T15:50:47.374Z,18.73
2018-11-07T15:53:15.583Z,19.27
2018-11-07T15:55:43.844Z,22.17
2018-11-07T15:58:12.960Z,22.30
2018-11-07T16:00:41.191Z,23.67
2018-11-07T16:03:09.355Z,22.07
2018-11-07T16:05:37.588Z,24.30
2018-11-07T16:08:06.058Z,23.33
2018-11-07T16:10:34.256Z,18.73
2018-11-07T16:13:02.592Z,20.73
2018-11-07T16:15:30.805Z,22.43
2018-11-07T16:17:59.530Z,20.53
2018-11-07T16:20:27.744Z,20.00
2018-11-07T16:22:55.994Z,19.97
2018-11-07T16:25:24.148Z,21.70
2018-11-07T16:27:52.390Z,19.43
2018-11-07T16:30:21.027Z,18.77
2018-11-07T16:32:49.227Z,18.43
2018-11-07T16:35:17.460Z,18.03
2018-11-07T16:37:45.683Z,16.67
2018-11-07T16:40:15.190Z,18.40
2018-11-07T16:42:43.915Z,15.60
2018-11-07T16:45:13.212Z,23.30
2018-11-07T16:47:41.592Z,18.70
2018-11-07T16:50:10.840Z,35.13
2018-11-07T16:52:39.305Z,27.97
2018-11-07T16:55:07.562Z,27.10
2018-11-07T16:57:36.241Z,28.57
2018-11-07T17:00:06.926Z,26.77
2018-11-07T17:02:35.072Z,21.40
2018-11-07T17:05:06.474Z,22.53
2018-11-07T17:07:34.607Z,16.03
2018-11-07T17:10:02.782Z,17.93
2018-11-07T17:12:30.994Z,24.37
2018-11-07T17:14:59.867Z,20.00
2018-11-07T17:17:28.028Z,20.80
2018-11-07T17:19:56.219Z,19.87
2018-11-07T17:22:24.383Z,17.30
2018-11-07T17:24:52.558Z,16.43
2018-11-07T17:27:21.853Z,19.77
2018-11-07T17:29:50.064Z,19.70
2018-11-07T17:32:18.576Z,16.27
2018-11-07T17:34:46.983Z,15.87
2018-11-07T17:37:15.375Z,16.63
2018-11-07T17:39:43.520Z,16.73
2018-11-07T17:42:11.675Z,17.57
2018-11-07T17:44:40.138Z,17.47
2018-11-07T17:47:08.308Z,17.80
2018-11-07T17:49:36.763Z,16.93
2018-11-07T17:52:05.455Z,17.73
2018-11-07T17:54:33.625Z,17.63
2018-11-07T17:57:01.835Z,17.90
2018-11-07T17:59:30.011Z,17.23
2018-11-07T18:01:58.221Z,21.43
2018-11-07T18:04:26.351Z,20.97
2018-11-07T18:06:54.535Z,19.33
2018-11-07T18:09:22.726Z,22.17
2018-11-07T18:11:50.912Z,22.13
2018-11-07T18:14:19.153Z,20.80
2018-11-07T18:16:47.342Z,23.00
2018-11-07T18:19:15.555Z,22.10
2018-11-07T18:21:43.709Z,20.03
2018-11-07T18:24:11.995Z,18.57
2018-11-07T18:26:40.807Z,19.60
2018-11-07T18:29:09.148Z,22.10
2018-11-07T18:31:38.383Z,21.90
2018-11-07T18:34:06.611Z,21.97
2018-11-07T18:36:34.791Z,24.03
2018-11-07T18:39:04.137Z,17.40
2018-11-07T18:41:32.319Z,16.00
2018-11-07T18:44:00.551Z,21.10
2018-11-07T18:46:28.740Z,19.87
2018-11-07T18:48:56.923Z,17.27
2018-11-07T18:51:25.183Z,18.17
2018-11-07T18:53:53.635Z,16.67
2018-11-07T18:56:21.818Z,15.87
2018-11-07T18:58:50.812Z,13.83
2018-11-07T19:01:18.918Z,15.63
2018-11-07T19:03:47.117Z,19.03
2018-11-07T19:06:15.307Z,21.67
2018-11-07T19:08:43.546Z,22.10
2018-11-07T19:11:11.740Z,16.83
2018-11-07T19:13:39.895Z,14.47
2018-11-07T19:16:08.070Z,14.30
2018-11-07T19:18:36.239Z,15.60
2018-11-07T19:21:04.743Z,17.83
2018-11-07T19:23:33.811Z,15.60
2018-11-07T19:26:02.020Z,13.20
2018-11-07T19:28:30.207Z,15.97
2018-11-07T19:30:58.423Z,20.03
2018-11-07T19:33:26.716Z,17.00
2018-11-07T19:35:54.894Z,15.87
2018-11-07T19:38:23.083Z,15.10
2018-11-07T19:40:51.258Z,14.77
2018-11-07T19:43:19.450Z,20.40
2018-11-07T19:45:47.769Z,24.37
2018-11-07T19:48:16.727Z,23.57
2018-11-07T19:50:45.152Z,24.50
2018-11-07T19:53:13.560Z,23.57
2018-11-07T19:55:42.395Z,21.13
2018-11-07T19:58:10.855Z,18.07
2018-11-07T20:00:50.515Z,18.90
2018-11-07T20:03:18.821Z,18.60
2018-11-07T20:05:47.320Z,17.87
2018-11-07T20:08:15.744Z,16.57
2018-11-07T20:10:44.264Z,16.93
2018-11-07T20:13:13.692Z,19.73
2018-11-07T20:15:42.132Z,18.90
2018-11-07T20:18:10.560Z,19.17
2018-11-07T20:20:38.972Z,18.17
2018-11-07T20:23:08.164Z,17.20
2018-11-07T20:25:36.503Z,18.60
2018-11-07T20:28:05.548Z,17.77
2018-11-07T20:30:34.533Z,17.57
2018-11-07T20:33:02.993Z,18.20
2018-11-07T20:35:31.540Z,19.57
2018-11-07T20:37:59.948Z,18.53
2018-11-07T20:40:28.656Z,19.57
2018-11-07T20:42:57.259Z,18.97
2018-11-07T20:45:25.724Z,17.77
2018-11-07T20:47:56.272Z,16.67
2018-11-07T20:50:24.698Z,14.50
2018-11-07T20:52:53.208Z,16.23
2018-11-07T20:55:21.653Z,17.77
2018-11-07T20:57:50.057Z,15.80
2018-11-07T21:00:21.016Z,15.70
2018-11-07T21:02:50.645Z,15.93
2018-11-07T21:05:19.043Z,16.77
2018-11-07T21:07:47.487Z,16.67
2018-11-07T21:10:19.231Z,17.43
2018-11-07T21:12:48.257Z,16.57
2018-11-07T21:15:17.608Z,15.83
2018-11-07T21:17:46.148Z,17.10
2018-11-07T21:20:14.616Z,18.33
2018-11-07T21:22:43.968Z,17.87
2018-11-07T21:25:12.664Z,17.83
2018-11-07T21:27:41.373Z,16.47
2018-11-07T21:30:12.810Z,16.63
2018-11-07T21:32:41.552Z,16.23
2018-11-07T21:35:10.606Z,16.33
2018-11-07T21:37:38.973Z,16.07
2018-11-07T21:40:09.053Z,15.63
2018-11-07T21:42:37.428Z,16.60
2018-11-07T21:45:08.187Z,15.60
2018-11-07T21:47:37.443Z,18.77
2018-11-07T21:50:07.140Z,16.37
2018-11-07T21:52:35.555Z,17.43
2018-11-07T21:55:04.323Z,16.60
2018-11-07T21:57:32.682Z,15.80
2018-11-07T22:00:01.064Z,15.73
2018-11-07T22:02:31.810Z,16.37
2018-11-07T22:05:10.735Z,16.47
2018-11-07T22:07:39.436Z,16.57
2018-11-07T22:10:08.788Z,16.23
2018-11-07T22:12:37.355Z,17.43
2018-11-07T22:15:06.296Z,17.07
2018-11-07T22:17:34.736Z,18.03
2018-11-07T22:20:03.132Z,17.57
2018-11-07T22:22:31.608Z,16.57
2018-11-07T22:24:59.988Z,17.17
2018-11-07T22:27:28.479Z,17.17
2018-11-07T22:29:56.894Z,15.50
2018-11-07T22:32:25.300Z,16.30
2018-11-07T22:34:53.696Z,14.77
2018-11-07T22:37:22.164Z,13.87
2018-11-07T22:39:50.646Z,13.00
2018-11-07T22:42:19.004Z,13.30
2018-11-07T22:44:47.450Z,14.27
2018-11-07T22:47:15.783Z,13.47
2018-11-07T22:49:44.289Z,12.53
2018-11-07T22:52:12.746Z,14.40
2018-11-07T22:54:41.088Z,12.77
2018-11-07T22:57:09.493Z,13.90
2018-11-07T22:59:37.816Z,14.87
2018-11-07T23:02:06.264Z,15.00
2018-11-07T23:04:34.626Z,16.07
2018-11-07T23:07:03.069Z,15.47
2018-11-07T23:09:31.489Z,15.37
2018-11-07T23:11:59.962Z,13.43
2018-11-07T23:14:28.401Z,14.07
2018-11-07T23:16:56.824Z,12.70
2018-11-07T23:19:25.240Z,13.97
2018-11-07T23:21:53.693Z,13.30
2018-11-07T23:24:22.158Z,11.73
2018-11-07T23:26:50.600Z,12.67
2018-11-07T23:29:19.901Z,11.80
2018-11-07T23:31:48.260Z,13.70
2018-11-07T23:34:16.716Z,13.63
2018-11-07T23:36:45.204Z,13.33
2018-11-07T23:39:13.620Z,12.30
2018-11-07T23:41:42.424Z,12.47
2018-11-07T23:44:10.845Z,13.17
2018-11-07T23:46:39.233Z,11.50
2018-11-07T23:49:07.641Z,12.17
2018-11-07T23:51:37.580Z,11.13
2018-11-07T23:54:06.462Z,11.17
2018-11-07T23:56:34.840Z,11.33
2018-11-07T23:59:03.312Z,11.33
